KOLE/OLE METAR and TAF weather

Enter ICAO airport designator
Station Type Date Time Source
KOLE METAR 2019/08/17 10:35 UTC NOAA

KOLE 171035Z AUTO 20004KT 1/4SM FG OVC002 15/15 A3004 RMK AO2


Station Type Date Time Source
KOLE Decoded METAR 2019/08/17 10:35 UTC NOAA

Station name not available
Aug 17, 2019 - 06:35 AM EDT / 2019.08.17 1035 UTC
Wind: from the SSW (200 degrees) at 5 MPH (4 KT):0
Visibility: 1/4 mile(s):0
Sky conditions: overcast
Weather: fog
Temperature: 59 F (15 C)
Dew Point: 59 F (15 C)
Relative Humidity: 100%
Pressure (altimeter): 30.04 in. Hg (1017 hPa)
ob: KOLE 171035Z AUTO 20004KT 1/4SM FG OVC002 15/15 A3004 RMK AO2
cycle: 10

Station Type Date Time Source
KOLE TAF UTC NOAA

Error!

Example: see airport list